sensor_id;sensor_type;location;lat;lon;timestamp;pressure;altitude;pressure_sealevel;temperature
75211;BMP280;63796;53.136;14.882;2022-11-20T00:01:19;100802.17;;;4.34
75211;BMP280;63796;53.136;14.882;2022-11-20T00:03:47;100799.64;;;4.37
75211;BMP280;63796;53.136;14.882;2022-11-20T00:06:18;100801.41;;;4.38
75211;BMP280;63796;53.136;14.882;2022-11-20T00:08:46;100799.16;;;4.38
75211;BMP280;63796;53.136;14.882;2022-11-20T00:11:16;100802.38;;;4.38
75211;BMP280;63796;53.136;14.882;2022-11-20T00:13:45;100797.88;;;4.38
75211;BMP280;63796;53.136;14.882;2022-11-20T00:16:17;100801.24;;;4.37
75211;BMP280;63796;53.136;14.882;2022-11-20T00:18:44;100798.98;;;4.35
75211;BMP280;63796;53.136;14.882;2022-11-20T00:21:18;100800.73;;;4.33
75211;BMP280;63796;53.136;14.882;2022-11-20T00:23:46;100801.06;;;4.32
75211;BMP280;63796;53.136;14.882;2022-11-20T00:26:16;100801.05;;;4.33
75211;BMP280;63796;53.136;14.882;2022-11-20T00:28:48;100800.88;;;4.31
75211;BMP280;63796;53.136;14.882;2022-11-20T00:31:15;100798.50;;;4.31
75211;BMP280;63796;53.136;14.882;2022-11-20T00:33:43;100806.64;;;4.30
75211;BMP280;63796;53.136;14.882;2022-11-20T00:36:14;100810.98;;;4.31
75211;BMP280;63796;53.136;14.882;2022-11-20T00:38:43;100811.47;;;4.32
75211;BMP280;63796;53.136;14.882;2022-11-20T00:41:14;100804.08;;;4.29
75211;BMP280;63796;53.136;14.882;2022-11-20T00:43:42;100804.56;;;4.29
75211;BMP280;63796;53.136;14.882;2022-11-20T00:46:19;100806.80;;;4.30
75211;BMP280;63796;53.136;14.882;2022-11-20T00:48:46;100806.78;;;4.29
75211;BMP280;63796;53.136;14.882;2022-11-20T00:51:17;100816.06;;;4.28
75211;BMP280;63796;53.136;14.882;2022-11-20T00:53:45;100812.26;;;4.30
75211;BMP280;63796;53.136;14.882;2022-11-20T00:56:15;100812.56;;;4.29
75211;BMP280;63796;53.136;14.882;2022-11-20T00:58:45;100811.92;;;4.29
75211;BMP280;63796;53.136;14.882;2022-11-20T01:01:19;100817.20;;;4.29
75211;BMP280;63796;53.136;14.882;2022-11-20T01:03:49;100815.75;;;4.29
75211;BMP280;63796;53.136;14.882;2022-11-20T01:06:31;100818.17;;;4.29
75211;BMP280;63796;53.136;14.882;2022-11-20T01:08:58;100812.71;;;4.29
75211;BMP280;63796;53.136;14.882;2022-11-20T01:11:32;100812.55;;;4.28
75211;BMP280;63796;53.136;14.882;2022-11-20T01:14:02;100813.36;;;4.27
75211;BMP280;63796;53.136;14.882;2022-11-20T01:16:34;100807.91;;;4.28
75211;BMP280;63796;53.136;14.882;2022-11-20T01:19:05;100811.75;;;4.24
75211;BMP280;63796;53.136;14.882;2022-11-20T01:21:39;100808.34;;;4.22
75211;BMP280;63796;53.136;14.882;2022-11-20T01:24:10;100813.29;;;4.16
75211;BMP280;63796;53.136;14.882;2022-11-20T01:26:39;100809.91;;;4.14
75211;BMP280;63796;53.136;14.882;2022-11-20T01:29:08;100813.91;;;4.14
75211;BMP280;63796;53.136;14.882;2022-11-20T01:31:37;100811.68;;;4.15
75211;BMP280;63796;53.136;14.882;2022-11-20T01:34:07;100806.54;;;4.13
75211;BMP280;63796;53.136;14.882;2022-11-20T01:36:37;100807.34;;;4.15
75211;BMP280;63796;53.136;14.882;2022-11-20T01:39:14;100809.62;;;4.18
75211;BMP280;63796;53.136;14.882;2022-11-20T01:41:43;100798.88;;;4.19
75211;BMP280;63796;53.136;14.882;2022-11-20T01:47:34;100799.22;;;4.21
75211;BMP280;63796;53.136;14.882;2022-11-20T01:50:15;100802.10;;;4.22
75211;BMP280;63796;53.136;14.882;2022-11-20T01:53:08;100794.91;;;4.21
75211;BMP280;63796;53.136;14.882;2022-11-20T01:55:22;100787.67;;;4.17
75211;BMP280;63796;53.136;14.882;2022-11-20T01:57:50;100789.92;;;4.19
75211;BMP280;63796;53.136;14.882;2022-11-20T02:00:20;100789.59;;;4.19
75211;BMP280;63796;53.136;14.882;2022-11-20T02:02:54;100792.95;;;4.18
75211;BMP280;63796;53.136;14.882;2022-11-20T02:05:46;100794.38;;;4.15
75211;BMP280;63796;53.136;14.882;2022-11-20T02:08:14;100784.61;;;4.14
75211;BMP280;63796;53.136;14.882;2022-11-20T02:13:16;100790.53;;;4.12
75211;BMP280;63796;53.136;14.882;2022-11-20T02:16:03;100794.80;;;4.06
75211;BMP280;63796;53.136;14.882;2022-11-20T02:18:30;100797.03;;;4.05
75211;BMP280;63796;53.136;14.882;2022-11-20T02:21:02;100791.89;;;4.03
75211;BMP280;63796;53.136;14.882;2022-11-20T02:26:41;100776.69;;;4.02
75211;BMP280;63796;53.136;14.882;2022-11-20T02:29:08;100784.05;;;4.02
75211;BMP280;63796;53.136;14.882;2022-11-20T02:31:38;100782.42;;;4.01
75211;BMP280;63796;53.136;14.882;2022-11-20T02:34:06;100785.00;;;4.01
75211;BMP280;63796;53.136;14.882;2022-11-20T02:36:35;100789.94;;;3.99
75211;BMP280;63796;53.136;14.882;2022-11-20T02:39:04;100784.97;;;3.99
75211;BMP280;63796;53.136;14.882;2022-11-20T02:41:34;100785.00;;;4.01
75211;BMP280;63796;53.136;14.882;2022-11-20T02:44:01;100786.92;;;4.01
75211;BMP280;63796;53.136;14.882;2022-11-20T02:46:29;100784.20;;;4.01
75211;BMP280;63796;53.136;14.882;2022-11-20T02:48:55;100785.80;;;4.00
75211;BMP280;63796;53.136;14.882;2022-11-20T02:51:23;100781.48;;;4.03
75211;BMP280;63796;53.136;14.882;2022-11-20T02:53:50;100782.44;;;4.03
75211;BMP280;63796;53.136;14.882;2022-11-20T02:56:16;100782.30;;;4.02
75211;BMP280;63796;53.136;14.882;2022-11-20T02:58:43;100789.63;;;4.01
75211;BMP280;63796;53.136;14.882;2022-11-20T03:01:10;100784.98;;;4.01
75211;BMP280;63796;53.136;14.882;2022-11-20T03:03:37;100788.36;;;4.01
75211;BMP280;63796;53.136;14.882;2022-11-20T03:06:04;100791.23;;;4.01
75211;BMP280;63796;53.136;14.882;2022-11-20T03:08:31;100786.44;;;4.01
75211;BMP280;63796;53.136;14.882;2022-11-20T03:11:06;100787.55;;;3.99
75211;BMP280;63796;53.136;14.882;2022-11-20T03:13:34;100781.92;;;3.98
75211;BMP280;63796;53.136;14.882;2022-11-20T03:16:12;100784.95;;;3.96
75211;BMP280;63796;53.136;14.882;2022-11-20T03:18:41;100777.14;;;3.97
75211;BMP280;63796;53.136;14.882;2022-11-20T03:21:10;100775.55;;;3.99
75211;BMP280;63796;53.136;14.882;2022-11-20T03:23:38;100768.81;;;3.97
75211;BMP280;63796;53.136;14.882;2022-11-20T03:26:17;100770.08;;;3.94
75211;BMP280;63796;53.136;14.882;2022-11-20T03:28:51;100767.66;;;3.95
75211;BMP280;63796;53.136;14.882;2022-11-20T03:31:22;100763.00;;;3.92
75211;BMP280;63796;53.136;14.882;2022-11-20T03:33:50;100764.92;;;3.91
75211;BMP280;63796;53.136;14.882;2022-11-20T03:36:19;100768.75;;;3.90
75211;BMP280;63796;53.136;14.882;2022-11-20T03:38:46;100771.81;;;3.91
75211;BMP280;63796;53.136;14.882;2022-11-20T03:41:26;100766.19;;;3.90
75211;BMP280;63796;53.136;14.882;2022-11-20T03:44:02;100763.97;;;3.91
75211;BMP280;63796;53.136;14.882;2022-11-20T03:46:30;100759.51;;;3.93
75211;BMP280;63796;53.136;14.882;2022-11-20T03:48:56;100759.50;;;3.94
75211;BMP280;63796;53.136;14.882;2022-11-20T03:51:32;100759.69;;;3.96
75211;BMP280;63796;53.136;14.882;2022-11-20T03:54:04;100751.50;;;3.96
75211;BMP280;63796;53.136;14.882;2022-11-20T03:56:38;100757.12;;;3.97
75211;BMP280;63796;53.136;14.882;2022-11-20T03:59:03;100761.11;;;3.94
75211;BMP280;63796;53.136;14.882;2022-11-20T04:01:36;100761.72;;;3.92
75211;BMP280;63796;53.136;14.882;2022-11-20T04:04:04;100757.38;;;3.89
75211;BMP280;63796;53.136;14.882;2022-11-20T04:06:37;100750.65;;;3.85
75211;BMP280;63796;53.136;14.882;2022-11-20T04:09:06;100751.08;;;3.82
75211;BMP280;63796;53.136;14.882;2022-11-20T04:11:36;100748.67;;;3.82
75211;BMP280;63796;53.136;14.882;2022-11-20T04:14:05;100744.84;;;3.81
75211;BMP280;63796;53.136;14.882;2022-11-20T04:16:35;100746.92;;;3.80
75211;BMP280;63796;53.136;14.882;2022-11-20T04:19:06;100741.48;;;3.78
75211;BMP280;63796;53.136;14.882;2022-11-20T04:21:34;100737.62;;;3.75
75211;BMP280;63796;53.136;14.882;2022-11-20T04:24:01;100731.33;;;3.72
75211;BMP280;63796;53.136;14.882;2022-11-20T04:26:29;100738.69;;;3.71
75211;BMP280;63796;53.136;14.882;2022-11-20T04:28:57;100730.84;;;3.67
75211;BMP280;63796;53.136;14.882;2022-11-20T04:31:27;100732.41;;;3.65
75211;BMP280;63796;53.136;14.882;2022-11-20T04:33:55;100728.69;;;3.60
75211;BMP280;63796;53.136;14.882;2022-11-20T04:36:25;100731.87;;;3.58
75211;BMP280;63796;53.136;14.882;2022-11-20T04:39:02;100730.59;;;3.56
75211;BMP280;63796;53.136;14.882;2022-11-20T04:41:34;100731.84;;;3.54
75211;BMP280;63796;53.136;14.882;2022-11-20T04:44:04;100734.40;;;3.54
75211;BMP280;63796;53.136;14.882;2022-11-20T04:46:38;100732.47;;;3.54
75211;BMP280;63796;53.136;14.882;2022-11-20T04:49:06;100736.81;;;3.54
75211;BMP280;63796;53.136;14.882;2022-11-20T04:51:33;100729.14;;;3.56
75211;BMP280;63796;53.136;14.882;2022-11-20T04:54:00;100729.30;;;3.56
75211;BMP280;63796;53.136;14.882;2022-11-20T04:56:27;100729.33;;;3.58
75211;BMP280;63796;53.136;14.882;2022-11-20T04:58:54;100721.64;;;3.58
75211;BMP280;63796;53.136;14.882;2022-11-20T05:01:23;100729.19;;;3.61
75211;BMP280;63796;53.136;14.882;2022-11-20T05:03:51;100733.98;;;3.63
75211;BMP280;63796;53.136;14.882;2022-11-20T05:06:23;100728.11;;;3.66
75211;BMP280;63796;53.136;14.882;2022-11-20T05:08:50;100729.70;;;3.67
75211;BMP280;63796;53.136;14.882;2022-11-20T05:11:20;100726.67;;;3.68
75211;BMP280;63796;53.136;14.882;2022-11-20T05:13:49;100730.53;;;3.70
75211;BMP280;63796;53.136;14.882;2022-11-20T05:16:20;100726.39;;;3.72
75211;BMP280;63796;53.136;14.882;2022-11-20T05:18:47;100720.78;;;3.73
75211;BMP280;63796;53.136;14.882;2022-11-20T05:21:15;100719.17;;;3.72
75211;BMP280;63796;53.136;14.882;2022-11-20T05:23:43;100718.70;;;3.72
75211;BMP280;63796;53.136;14.882;2022-11-20T05:26:18;100726.03;;;3.71
75211;BMP280;63796;53.136;14.882;2022-11-20T05:28:45;100719.97;;;3.72
75211;BMP280;63796;53.136;14.882;2022-11-20T05:31:17;100720.17;;;3.75
75211;BMP280;63796;53.136;14.882;2022-11-20T05:33:45;100718.73;;;3.78
75211;BMP280;63796;53.136;14.882;2022-11-20T05:36:13;100719.53;;;3.79
75211;BMP280;63796;53.136;14.882;2022-11-20T05:38:42;100732.03;;;3.79
75211;BMP280;63796;53.136;14.882;2022-11-20T05:41:13;100728.20;;;3.80
75211;BMP280;63796;53.136;14.882;2022-11-20T05:43:43;100722.58;;;3.76
75211;BMP280;63796;53.136;14.882;2022-11-20T05:46:13;100722.07;;;3.74
75211;BMP280;63796;53.136;14.882;2022-11-20T05:48:42;100727.21;;;3.74
75211;BMP280;63796;53.136;14.882;2022-11-20T05:51:16;100717.72;;;3.71
75211;BMP280;63796;53.136;14.882;2022-11-20T05:53:44;100718.37;;;3.70
75211;BMP280;63796;53.136;14.882;2022-11-20T05:56:15;100721.56;;;3.71
75211;BMP280;63796;53.136;14.882;2022-11-20T05:58:42;100715.51;;;3.72
75211;BMP280;63796;53.136;14.882;2022-11-20T06:01:25;100712.94;;;3.72
75211;BMP280;63796;53.136;14.882;2022-11-20T06:03:50;100719.63;;;3.68
75211;BMP280;63796;53.136;14.882;2022-11-20T06:06:18;100714.02;;;3.65
75211;BMP280;63796;53.136;14.882;2022-11-20T06:08:46;100721.37;;;3.65
75211;BMP280;63796;53.136;14.882;2022-11-20T06:11:15;100716.86;;;3.63
75211;BMP280;63796;53.136;14.882;2022-11-20T06:13:43;100718.94;;;3.63
75211;BMP280;63796;53.136;14.882;2022-11-20T06:16:15;100721.64;;;3.60
75211;BMP280;63796;53.136;14.882;2022-11-20T06:18:41;100715.55;;;3.58
75211;BMP280;63796;53.136;14.882;2022-11-20T06:21:12;100704.20;;;3.59
75211;BMP280;63796;53.136;14.882;2022-11-20T06:23:39;100707.75;;;3.61
75211;BMP280;63796;53.136;14.882;2022-11-20T06:26:10;100704.07;;;3.61
75211;BMP280;63796;53.136;14.882;2022-11-20T06:28:37;100703.25;;;3.58
75211;BMP280;63796;53.136;14.882;2022-11-20T06:31:06;100708.00;;;3.55
75211;BMP280;63796;53.136;14.882;2022-11-20T06:33:33;100718.58;;;3.57
75211;BMP280;63796;53.136;14.882;2022-11-20T06:36:01;100718.27;;;3.57
75211;BMP280;63796;53.136;14.882;2022-11-20T06:38:28;100718.12;;;3.56
75211;BMP280;63796;53.136;14.882;2022-11-20T06:40:55;100720.20;;;3.56
75211;BMP280;63796;53.136;14.882;2022-11-20T06:43:23;100722.10;;;3.56
75211;BMP280;63796;53.136;14.882;2022-11-20T06:45:54;100716.00;;;3.54
75211;BMP280;63796;53.136;14.882;2022-11-20T06:48:23;100715.69;;;3.55
75211;BMP280;63796;53.136;14.882;2022-11-20T06:50:50;100713.16;;;3.57
75211;BMP280;63796;53.136;14.882;2022-11-20T06:53:17;100715.89;;;3.58
75211;BMP280;63796;53.136;14.882;2022-11-20T06:55:46;100710.92;;;3.56
75211;BMP280;63796;53.136;14.882;2022-11-20T06:58:14;100714.77;;;3.59
75211;BMP280;63796;53.136;14.882;2022-11-20T07:00:42;100703.75;;;3.61
75211;BMP280;63796;53.136;14.882;2022-11-20T07:03:12;100711.77;;;3.64
75211;BMP280;63796;53.136;14.882;2022-11-20T07:05:39;100702.50;;;3.68
75211;BMP280;63796;53.136;14.882;2022-11-20T07:08:06;100708.92;;;3.70
75211;BMP280;63796;53.136;14.882;2022-11-20T07:10:34;100709.56;;;3.72
75211;BMP280;63796;53.136;14.882;2022-11-20T07:13:01;100701.09;;;3.73
75211;BMP280;63796;53.136;14.882;2022-11-20T07:15:28;100698.91;;;3.80
75211;BMP280;63796;53.136;14.882;2022-11-20T07:17:55;100699.92;;;3.87
75211;BMP280;63796;53.136;14.882;2022-11-20T07:20:21;100696.26;;;3.92
75211;BMP280;63796;53.136;14.882;2022-11-20T07:22:54;100693.56;;;3.96
75211;BMP280;63796;53.136;14.882;2022-11-20T07:25:23;100694.38;;;3.97
75211;BMP280;63796;53.136;14.882;2022-11-20T07:27:50;100697.58;;;3.99
75211;BMP280;63796;53.136;14.882;2022-11-20T07:30:18;100699.36;;;4.00
75211;BMP280;63796;53.136;14.882;2022-11-20T07:32:53;100694.27;;;4.04
75211;BMP280;63796;53.136;14.882;2022-11-20T07:35:21;100696.97;;;4.04
75211;BMP280;63796;53.136;14.882;2022-11-20T07:37:48;100695.22;;;4.07
75211;BMP280;63796;53.136;14.882;2022-11-20T07:40:16;100695.70;;;4.05
75211;BMP280;63796;53.136;14.882;2022-11-20T07:42:52;100695.33;;;3.97
75211;BMP280;63796;53.136;14.882;2022-11-20T07:45:21;100690.51;;;3.95
75211;BMP280;63796;53.136;14.882;2022-11-20T07:47:48;100690.66;;;3.93
75211;BMP280;63796;53.136;14.882;2022-11-20T07:50:15;100690.66;;;3.93
75211;BMP280;63796;53.136;14.882;2022-11-20T07:52:42;100688.11;;;3.95
75211;BMP280;63796;53.136;14.882;2022-11-20T07:55:12;100694.84;;;3.94
75211;BMP280;63796;53.136;14.882;2022-11-20T07:57:39;100692.77;;;3.98
75211;BMP280;63796;53.136;14.882;2022-11-20T08:00:09;100692.16;;;4.03
75211;BMP280;63796;53.136;14.882;2022-11-20T08:02:40;100686.74;;;4.10
75211;BMP280;63796;53.136;14.882;2022-11-20T08:05:09;100690.48;;;4.19
75211;BMP280;63796;53.136;14.882;2022-11-20T08:07:42;100685.55;;;4.24
75211;BMP280;63796;53.136;14.882;2022-11-20T08:10:13;100684.59;;;4.26
75211;BMP280;63796;53.136;14.882;2022-11-20T08:12:49;100681.41;;;4.29
75211;BMP280;63796;53.136;14.882;2022-11-20T08:15:36;100679.18;;;4.35
75211;BMP280;63796;53.136;14.882;2022-11-20T08:18:10;100679.20;;;4.38
75211;BMP280;63796;53.136;14.882;2022-11-20T08:20:40;100672.33;;;4.40
75211;BMP280;63796;53.136;14.882;2022-11-20T08:23:07;100672.65;;;4.40
75211;BMP280;63796;53.136;14.882;2022-11-20T08:25:37;100670.88;;;4.43
75211;BMP280;63796;53.136;14.882;2022-11-20T08:28:07;100674.25;;;4.47
75211;BMP280;63796;53.136;14.882;2022-11-20T08:30:35;100678.11;;;4.52
75211;BMP280;63796;53.136;14.882;2022-11-20T08:33:06;100671.41;;;4.56
75211;BMP280;63796;53.136;14.882;2022-11-20T08:35:35;100674.16;;;4.63
75211;BMP280;63796;53.136;14.882;2022-11-20T08:38:04;100677.05;;;4.67
75211;BMP280;63796;53.136;14.882;2022-11-20T08:40:31;100674.48;;;4.70
75211;BMP280;63796;53.136;14.882;2022-11-20T08:42:58;100668.39;;;4.72
75211;BMP280;63796;53.136;14.882;2022-11-20T08:45:25;100666.16;;;4.75
75211;BMP280;63796;53.136;14.882;2022-11-20T08:47:52;100670.35;;;4.83
75211;BMP280;63796;53.136;14.882;2022-11-20T08:50:19;100658.66;;;4.91
75211;BMP280;63796;53.136;14.882;2022-11-20T08:52:46;100653.20;;;4.93
75211;BMP280;63796;53.136;14.882;2022-11-20T08:55:13;100654.50;;;4.93
75211;BMP280;63796;53.136;14.882;2022-11-20T08:57:39;100657.36;;;4.95
75211;BMP280;63796;53.136;14.882;2022-11-20T09:00:08;100655.31;;;4.99
75211;BMP280;63796;53.136;14.882;2022-11-20T09:02:35;100654.97;;;5.01
75211;BMP280;63796;53.136;14.882;2022-11-20T09:05:02;100651.62;;;5.07
75211;BMP280;63796;53.136;14.882;2022-11-20T09:07:30;100655.14;;;5.13
75211;BMP280;63796;53.136;14.882;2022-11-20T09:09:57;100655.31;;;5.10
75211;BMP280;63796;53.136;14.882;2022-11-20T09:12:24;100651.30;;;5.13
75211;BMP280;63796;53.136;14.882;2022-11-20T09:14:50;100654.19;;;5.18
75211;BMP280;63796;53.136;14.882;2022-11-20T09:17:18;100659.14;;;5.22
75211;BMP280;63796;53.136;14.882;2022-11-20T09:19:46;100652.59;;;5.23
75211;BMP280;63796;53.136;14.882;2022-11-20T09:22:13;100652.59;;;5.23
75211;BMP280;63796;53.136;14.882;2022-11-20T09:24:40;100651.16;;;5.23
75211;BMP280;63796;53.136;14.882;2022-11-20T09:27:08;100655.94;;;5.27
75211;BMP280;63796;53.136;14.882;2022-11-20T09:29:35;100653.07;;;5.21
75211;BMP280;63796;53.136;14.882;2022-11-20T09:32:02;100657.55;;;5.22
75211;BMP280;63796;53.136;14.882;2022-11-20T09:34:29;100640.87;;;5.21
75211;BMP280;63796;53.136;14.882;2022-11-20T09:36:55;100646.98;;;5.25
75211;BMP280;63796;53.136;14.882;2022-11-20T09:39:22;100640.55;;;5.29
75211;BMP280;63796;53.136;14.882;2022-11-20T09:56:42;100634.61;;;5.00
75211;BMP280;63796;53.136;14.882;2022-11-20T10:08:11;100631.42;;;5.15
75211;BMP280;63796;53.136;14.882;2022-11-20T10:10:34;100625.95;;;5.11
75211;BMP280;63796;53.136;14.882;2022-11-20T10:15:46;100621.32;;;5.10
75211;BMP280;63796;53.136;14.882;2022-11-20T10:26:45;100619.38;;;4.94
75211;BMP280;63796;53.136;14.882;2022-11-20T10:29:16;100617.77;;;4.92
75211;BMP280;63796;53.136;14.882;2022-11-20T10:31:46;100616.49;;;4.97
75211;BMP280;63796;53.136;14.882;2022-11-20T10:34:35;100622.43;;;5.00
75211;BMP280;63796;53.136;14.882;2022-11-20T10:37:15;100613.95;;;5.06
75211;BMP280;63796;53.136;14.882;2022-11-20T10:42:41;100607.66;;;5.22
75211;BMP280;63796;53.136;14.882;2022-11-20T10:50:36;100601.06;;;5.41
75211;BMP280;63796;53.136;14.882;2022-11-20T10:56:00;100596.70;;;5.55
75211;BMP280;63796;53.136;14.882;2022-11-20T10:59:00;100592.51;;;5.65
75211;BMP280;63796;53.136;14.882;2022-11-20T11:01:23;100595.20;;;5.84
75211;BMP280;63796;53.136;14.882;2022-11-20T11:03:52;100595.03;;;5.94
75211;BMP280;63796;53.136;14.882;2022-11-20T11:06:40;100593.03;;;6.09
75211;BMP280;63796;53.136;14.882;2022-11-20T11:09:16;100592.02;;;6.20
75211;BMP280;63796;53.136;14.882;2022-11-20T11:11:41;100595.05;;;6.21
75211;BMP280;63796;53.136;14.882;2022-11-20T11:14:11;100588.63;;;6.22
75211;BMP280;63796;53.136;14.882;2022-11-20T11:16:55;100588.47;;;6.23
75211;BMP280;63796;53.136;14.882;2022-11-20T11:19:23;100587.16;;;6.24
75211;BMP280;63796;53.136;14.882;2022-11-20T11:21:56;100583.77;;;6.31
75211;BMP280;63796;53.136;14.882;2022-11-20T11:24:25;100582.13;;;6.38
75211;BMP280;63796;53.136;14.882;2022-11-20T11:26:59;100585.49;;;6.37
75211;BMP280;63796;53.136;14.882;2022-11-20T11:29:23;100580.02;;;6.40
75211;BMP280;63796;53.136;14.882;2022-11-20T11:32:04;100580.13;;;6.50
75211;BMP280;63796;53.136;14.882;2022-11-20T11:34:31;100580.63;;;6.45
75211;BMP280;63796;53.136;14.882;2022-11-20T11:37:00;100585.61;;;6.47
75211;BMP280;63796;53.136;14.882;2022-11-20T11:39:31;100586.27;;;6.46
75211;BMP280;63796;53.136;14.882;2022-11-20T11:42:00;100590.06;;;6.26
75211;BMP280;63796;53.136;14.882;2022-11-20T11:44:32;100587.99;;;6.21
75211;BMP280;63796;53.136;14.882;2022-11-20T11:47:43;100587.37;;;6.20
75211;BMP280;63796;53.136;14.882;2022-11-20T11:55:34;100588.50;;;6.17
75211;BMP280;63796;53.136;14.882;2022-11-20T12:00:32;100575.69;;;6.35
75211;BMP280;63796;53.136;14.882;2022-11-20T12:03:15;100573.41;;;6.43
75211;BMP280;63796;53.136;14.882;2022-11-20T12:05:48;100572.16;;;6.37
75211;BMP280;63796;53.136;14.882;2022-11-20T12:08:44;100563.23;;;6.26
75211;BMP280;63796;53.136;14.882;2022-11-20T12:11:20;100563.11;;;6.20
75211;BMP280;63796;53.136;14.882;2022-11-20T12:13:52;100559.92;;;6.13
75211;BMP280;63796;53.136;14.882;2022-11-20T12:16:20;100557.37;;;6.12
75211;BMP280;63796;53.136;14.882;2022-11-20T12:18:50;100555.45;;;6.11
75211;BMP280;63796;53.136;14.882;2022-11-20T12:41:40;100538.02;;;5.45
75211;BMP280;63796;53.136;14.882;2022-11-20T12:53:31;100537.44;;;5.08
75211;BMP280;63796;53.136;14.882;2022-11-20T13:06:12;100524.81;;;4.70
75211;BMP280;63796;53.136;14.882;2022-11-20T13:08:01;100527.06;;;4.69
75211;BMP280;63796;53.136;14.882;2022-11-20T13:10:47;100532.20;;;4.63
75211;BMP280;63796;53.136;14.882;2022-11-20T13:13:33;100528.49;;;4.52
75211;BMP280;63796;53.136;14.882;2022-11-20T13:16:14;100531.20;;;4.41
75211;BMP280;63796;53.136;14.882;2022-11-20T13:18:40;100526.55;;;4.33
75211;BMP280;63796;53.136;14.882;2022-11-20T13:21:34;100524.60;;;4.28
75211;BMP280;63796;53.136;14.882;2022-11-20T13:23:52;100523.64;;;4.23
75211;BMP280;63796;53.136;14.882;2022-11-20T13:26:21;100520.12;;;4.25
75211;BMP280;63796;53.136;14.882;2022-11-20T13:29:02;100517.89;;;4.28
75211;BMP280;63796;53.136;14.882;2022-11-20T13:31:34;100521.27;;;4.33
75211;BMP280;63796;53.136;14.882;2022-11-20T13:34:04;100519.02;;;4.36
75211;BMP280;63796;53.136;14.882;2022-11-20T13:36:32;100510.36;;;4.39
75211;BMP280;63796;53.136;14.882;2022-11-20T13:39:01;100514.71;;;4.41
75211;BMP280;63796;53.136;14.882;2022-11-20T13:41:35;100510.38;;;4.33
75211;BMP280;63796;53.136;14.882;2022-11-20T13:44:24;100505.23;;;4.25
75211;BMP280;63796;53.136;14.882;2022-11-20T13:46:48;100507.16;;;4.19
75211;BMP280;63796;53.136;14.882;2022-11-20T13:49:23;100506.03;;;4.15
75211;BMP280;63796;53.136;14.882;2022-11-20T13:51:50;100502.66;;;4.10
75211;BMP280;63796;53.136;14.882;2022-11-20T13:57:39;100497.98;;;3.93
75211;BMP280;63796;53.136;14.882;2022-11-20T14:00:20;100500.84;;;3.85
75211;BMP280;63796;53.136;14.882;2022-11-20T14:03:17;100494.91;;;3.83
75211;BMP280;63796;53.136;14.882;2022-11-20T14:05:52;100489.77;;;3.82
75211;BMP280;63796;53.136;14.882;2022-11-20T14:08:24;100483.23;;;3.83
75211;BMP280;63796;53.136;14.882;2022-11-20T14:16:37;100487.85;;;3.82
75211;BMP280;63796;53.136;14.882;2022-11-20T14:19:26;100484.50;;;3.81
75211;BMP280;63796;53.136;14.882;2022-11-20T14:24:42;100497.11;;;3.76
75211;BMP280;63796;53.136;14.882;2022-11-20T14:27:20;100493.44;;;3.74
75211;BMP280;63796;53.136;14.882;2022-11-20T14:29:50;100489.09;;;3.71
75211;BMP280;63796;53.136;14.882;2022-11-20T14:32:19;100495.00;;;3.69
75211;BMP280;63796;53.136;14.882;2022-11-20T14:34:49;100490.67;;;3.66
75211;BMP280;63796;53.136;14.882;2022-11-20T14:37:24;100489.23;;;3.64
75211;BMP280;63796;53.136;14.882;2022-11-20T14:39:57;100490.48;;;3.60
75211;BMP280;63796;53.136;14.882;2022-11-20T14:42:28;100486.50;;;3.60
75211;BMP280;63796;53.136;14.882;2022-11-20T14:44:58;100488.73;;;3.60
75211;BMP280;63796;53.136;14.882;2022-11-20T14:47:29;100485.86;;;3.59
75211;BMP280;63796;53.136;14.882;2022-11-20T14:49:58;100482.66;;;3.58
75211;BMP280;63796;53.136;14.882;2022-11-20T14:52:27;100489.53;;;3.56
75211;BMP280;63796;53.136;14.882;2022-11-20T14:54:57;100483.12;;;3.57
75211;BMP280;63796;53.136;14.882;2022-11-20T14:57:30;100494.48;;;3.60
75211;BMP280;63796;53.136;14.882;2022-11-20T15:02:48;100483.92;;;3.60
75211;BMP280;63796;53.136;14.882;2022-11-20T15:05:18;100481.20;;;3.58
75211;BMP280;63796;53.136;14.882;2022-11-20T15:07:50;100480.74;;;3.58
75211;BMP280;63796;53.136;14.882;2022-11-20T15:10:27;100479.77;;;3.57
75211;BMP280;63796;53.136;14.882;2022-11-20T15:12:59;100483.94;;;3.59
75211;BMP280;63796;53.136;14.882;2022-11-20T15:18:01;100476.24;;;3.58
75211;BMP280;63796;53.136;14.882;2022-11-20T15:20:32;100474.16;;;3.57
75211;BMP280;63796;53.136;14.882;2022-11-20T15:22:59;100478.17;;;3.59
75211;BMP280;63796;53.136;14.882;2022-11-20T15:25:26;100481.38;;;3.58
75211;BMP280;63796;53.136;14.882;2022-11-20T15:27:57;100471.31;;;3.59
75211;BMP280;63796;53.136;14.882;2022-11-20T15:30:24;100472.09;;;3.61
75211;BMP280;63796;53.136;14.882;2022-11-20T15:32:52;100469.39;;;3.61
75211;BMP280;63796;53.136;14.882;2022-11-20T15:35:18;100471.14;;;3.63
75211;BMP280;63796;53.136;14.882;2022-11-20T15:37:45;100463.16;;;3.64
75211;BMP280;63796;53.136;14.882;2022-11-20T15:40:12;100461.88;;;3.65
75211;BMP280;63796;53.136;14.882;2022-11-20T15:42:39;100461.42;;;3.67
75211;BMP280;63796;53.136;14.882;2022-11-20T15:45:08;100460.77;;;3.68
75211;BMP280;63796;53.136;14.882;2022-11-20T15:47:36;100462.06;;;3.71
75211;BMP280;63796;53.136;14.882;2022-11-20T15:50:03;100463.98;;;3.73
75211;BMP280;63796;53.136;14.882;2022-11-20T15:52:30;100464.97;;;3.75
75211;BMP280;63796;53.136;14.882;2022-11-20T15:54:57;100462.55;;;3.75
75211;BMP280;63796;53.136;14.882;2022-11-20T15:57:24;100458.07;;;3.73
75211;BMP280;63796;53.136;14.882;2022-11-20T15:59:51;100461.76;;;3.78
75211;BMP280;63796;53.136;14.882;2022-11-20T16:02:18;100452.97;;;3.77
75211;BMP280;63796;53.136;14.882;2022-11-20T16:04:45;100455.05;;;3.80
75211;BMP280;63796;53.136;14.882;2022-11-20T16:07:11;100450.07;;;3.79
75211;BMP280;63796;53.136;14.882;2022-11-20T16:09:39;100451.53;;;3.77
75211;BMP280;63796;53.136;14.882;2022-11-20T16:12:09;100449.61;;;3.75
75211;BMP280;63796;53.136;14.882;2022-11-20T16:14:38;100450.87;;;3.72